sensor_id;sensor_type;location;lat;lon;timestamp;P1;durP1;ratioP1;P2;durP2;ratioP2
70075;SDS011;63241;51.056;3.698;2022-11-04T00:02:28;25.90;;;8.03;;
70075;SDS011;63241;51.056;3.698;2022-11-04T00:05:16;20.65;;;8.18;;
70075;SDS011;63241;51.056;3.698;2022-11-04T00:08:04;27.13;;;9.55;;
70075;SDS011;63241;51.056;3.698;2022-11-04T00:11:10;26.10;;;9.13;;
70075;SDS011;63241;51.056;3.698;2022-11-04T00:14:16;22.77;;;8.10;;
70075;SDS011;63241;51.056;3.698;2022-11-04T00:17:05;21.85;;;7.62;;
70075;SDS011;63241;51.056;3.698;2022-11-04T00:20:08;20.00;;;6.62;;
70075;SDS011;63241;51.056;3.698;2022-11-04T00:23:13;22.15;;;7.87;;
70075;SDS011;63241;51.056;3.698;2022-11-04T00:26:06;26.42;;;7.45;;
70075;SDS011;63241;51.056;3.698;2022-11-04T00:32:52;24.37;;;7.12;;
70075;SDS011;63241;51.056;3.698;2022-11-04T00:35:57;30.55;;;8.23;;
70075;SDS011;63241;51.056;3.698;2022-11-04T00:38:23;23.85;;;8.00;;
70075;SDS011;63241;51.056;3.698;2022-11-04T00:41:12;23.75;;;8.33;;
70075;SDS011;63241;51.056;3.698;2022-11-04T00:44:11;22.87;;;7.78;;
70075;SDS011;63241;51.056;3.698;2022-11-04T00:46:59;31.50;;;8.60;;
70075;SDS011;63241;51.056;3.698;2022-11-04T00:49:47;26.35;;;8.45;;
70075;SDS011;63241;51.056;3.698;2022-11-04T00:52:36;20.62;;;7.92;;
70075;SDS011;63241;51.056;3.698;2022-11-04T00:55:03;22.48;;;7.55;;
70075;SDS011;63241;51.056;3.698;2022-11-04T00:57:52;15.38;;;5.70;;
70075;SDS011;63241;51.056;3.698;2022-11-04T01:00:41;17.27;;;6.05;;
70075;SDS011;63241;51.056;3.698;2022-11-04T01:03:29;18.45;;;6.12;;
70075;SDS011;63241;51.056;3.698;2022-11-04T01:06:18;15.50;;;6.65;;
70075;SDS011;63241;51.056;3.698;2022-11-04T01:09:10;18.70;;;5.87;;
70075;SDS011;63241;51.056;3.698;2022-11-04T01:11:58;19.62;;;5.20;;
70075;SDS011;63241;51.056;3.698;2022-11-04T01:14:46;17.70;;;5.42;;
70075;SDS011;63241;51.056;3.698;2022-11-04T01:17:15;19.35;;;5.03;;
70075;SDS011;63241;51.056;3.698;2022-11-04T01:20:03;17.50;;;5.45;;
70075;SDS011;63241;51.056;3.698;2022-11-04T01:22:51;18.12;;;4.62;;
70075;SDS011;63241;51.056;3.698;2022-11-04T01:25:39;16.82;;;4.90;;
70075;SDS011;63241;51.056;3.698;2022-11-04T01:28:27;17.80;;;4.72;;
70075;SDS011;63241;51.056;3.698;2022-11-04T01:31:16;13.98;;;4.30;;
70075;SDS011;63241;51.056;3.698;2022-11-04T01:34:07;19.60;;;4.17;;
70075;SDS011;63241;51.056;3.698;2022-11-04T01:36:57;12.55;;;3.98;;
70075;SDS011;63241;51.056;3.698;2022-11-04T01:39:45;16.90;;;4.20;;
70075;SDS011;63241;51.056;3.698;2022-11-04T01:42:33;13.10;;;3.50;;
70075;SDS011;63241;51.056;3.698;2022-11-04T01:45:21;19.60;;;3.72;;
70075;SDS011;63241;51.056;3.698;2022-11-04T01:47:51;9.65;;;3.65;;
70075;SDS011;63241;51.056;3.698;2022-11-04T01:50:40;15.35;;;3.47;;
70075;SDS011;63241;51.056;3.698;2022-11-04T01:53:32;10.35;;;3.35;;
70075;SDS011;63241;51.056;3.698;2022-11-04T01:56:22;21.48;;;3.55;;
70075;SDS011;63241;51.056;3.698;2022-11-04T01:59:15;16.95;;;4.12;;
70075;SDS011;63241;51.056;3.698;2022-11-04T02:02:03;13.75;;;3.15;;
70075;SDS011;63241;51.056;3.698;2022-11-04T02:04:53;16.12;;;3.12;;
70075;SDS011;63241;51.056;3.698;2022-11-04T02:07:41;17.87;;;3.37;;
70075;SDS011;63241;51.056;3.698;2022-11-04T02:10:30;14.50;;;3.20;;
70075;SDS011;63241;51.056;3.698;2022-11-04T02:13:19;18.35;;;3.65;;
70075;SDS011;63241;51.056;3.698;2022-11-04T02:16:13;16.15;;;3.90;;
70075;SDS011;63241;51.056;3.698;2022-11-04T02:30:46;21.15;;;4.08;;
70075;SDS011;63241;51.056;3.698;2022-11-04T02:33:56;18.27;;;3.50;;
70075;SDS011;63241;51.056;3.698;2022-11-04T02:40:22;18.45;;;4.15;;
70075;SDS011;63241;51.056;3.698;2022-11-04T02:43:24;15.38;;;3.45;;
70075;SDS011;63241;51.056;3.698;2022-11-04T02:49:25;20.75;;;3.62;;
70075;SDS011;63241;51.056;3.698;2022-11-04T02:52:01;24.47;;;3.70;;
70075;SDS011;63241;51.056;3.698;2022-11-04T02:57:43;20.45;;;3.83;;
70075;SDS011;63241;51.056;3.698;2022-11-04T03:00:32;22.15;;;4.22;;
70075;SDS011;63241;51.056;3.698;2022-11-04T03:03:24;21.90;;;4.08;;
70075;SDS011;63241;51.056;3.698;2022-11-04T03:06:13;16.93;;;4.37;;
70075;SDS011;63241;51.056;3.698;2022-11-04T03:09:03;22.05;;;3.50;;
70075;SDS011;63241;51.056;3.698;2022-11-04T03:11:55;25.92;;;4.28;;
70075;SDS011;63241;51.056;3.698;2022-11-04T03:14:47;23.57;;;4.53;;
70075;SDS011;63241;51.056;3.698;2022-11-04T03:17:40;23.67;;;4.45;;
70075;SDS011;63241;51.056;3.698;2022-11-04T03:20:32;23.87;;;3.87;;
70075;SDS011;63241;51.056;3.698;2022-11-04T03:22:58;17.50;;;3.85;;
70075;SDS011;63241;51.056;3.698;2022-11-04T03:25:47;23.38;;;4.67;;
70075;SDS011;63241;51.056;3.698;2022-11-04T03:28:45;22.10;;;4.47;;
70075;SDS011;63241;51.056;3.698;2022-11-04T03:31:40;27.50;;;4.60;;
70075;SDS011;63241;51.056;3.698;2022-11-04T03:34:30;24.02;;;4.72;;
70075;SDS011;63241;51.056;3.698;2022-11-04T03:37:19;23.15;;;4.33;;
70075;SDS011;63241;51.056;3.698;2022-11-04T03:40:12;26.52;;;5.47;;
70075;SDS011;63241;51.056;3.698;2022-11-04T03:43:24;24.92;;;4.67;;
70075;SDS011;63241;51.056;3.698;2022-11-04T03:46:14;18.55;;;3.67;;
70075;SDS011;63241;51.056;3.698;2022-11-04T03:49:02;23.42;;;3.98;;
70075;SDS011;63241;51.056;3.698;2022-11-04T03:51:51;28.20;;;5.10;;
70075;SDS011;63241;51.056;3.698;2022-11-04T03:54:40;19.60;;;4.12;;
70075;SDS011;63241;51.056;3.698;2022-11-04T04:00:41;26.42;;;4.55;;
70075;SDS011;63241;51.056;3.698;2022-11-04T04:03:32;23.92;;;4.12;;
70075;SDS011;63241;51.056;3.698;2022-11-04T04:06:29;18.25;;;3.60;;
70075;SDS011;63241;51.056;3.698;2022-11-04T04:09:20;23.47;;;4.17;;
70075;SDS011;63241;51.056;3.698;2022-11-04T04:12:00;23.42;;;5.08;;
70075;SDS011;63241;51.056;3.698;2022-11-04T04:14:52;18.80;;;4.83;;
70075;SDS011;63241;51.056;3.698;2022-11-04T04:17:45;17.00;;;4.58;;
70075;SDS011;63241;51.056;3.698;2022-11-04T04:20:37;21.75;;;4.22;;
70075;SDS011;63241;51.056;3.698;2022-11-04T04:23:28;17.20;;;4.12;;
70075;SDS011;63241;51.056;3.698;2022-11-04T04:26:35;21.33;;;5.40;;
70075;SDS011;63241;51.056;3.698;2022-11-04T04:29:42;18.65;;;4.33;;
70075;SDS011;63241;51.056;3.698;2022-11-04T04:32:33;18.92;;;4.55;;
70075;SDS011;63241;51.056;3.698;2022-11-04T04:35:26;26.33;;;5.50;;
70075;SDS011;63241;51.056;3.698;2022-11-04T04:38:27;23.95;;;5.20;;
70075;SDS011;63241;51.056;3.698;2022-11-04T04:41:33;20.70;;;4.97;;
70075;SDS011;63241;51.056;3.698;2022-11-04T04:44:00;23.95;;;5.67;;
70075;SDS011;63241;51.056;3.698;2022-11-04T04:47:05;17.98;;;5.03;;
70075;SDS011;63241;51.056;3.698;2022-11-04T04:50:14;22.02;;;5.47;;
70075;SDS011;63241;51.056;3.698;2022-11-04T04:53:05;23.42;;;5.92;;
70075;SDS011;63241;51.056;3.698;2022-11-04T04:55:53;23.07;;;5.65;;
70075;SDS011;63241;51.056;3.698;2022-11-04T04:58:40;20.55;;;4.60;;
70075;SDS011;63241;51.056;3.698;2022-11-04T05:01:29;17.23;;;4.35;;
70075;SDS011;63241;51.056;3.698;2022-11-04T05:04:17;19.02;;;5.70;;
70075;SDS011;63241;51.056;3.698;2022-11-04T05:07:05;21.62;;;5.53;;
70075;SDS011;63241;51.056;3.698;2022-11-04T05:09:54;20.90;;;6.05;;
70075;SDS011;63241;51.056;3.698;2022-11-04T05:12:42;19.35;;;5.80;;
70075;SDS011;63241;51.056;3.698;2022-11-04T05:15:48;25.08;;;6.37;;
70075;SDS011;63241;51.056;3.698;2022-11-04T05:18:36;19.57;;;6.03;;
70075;SDS011;63241;51.056;3.698;2022-11-04T05:21:24;19.85;;;5.72;;
70075;SDS011;63241;51.056;3.698;2022-11-04T05:24:13;18.48;;;5.33;;
70075;SDS011;63241;51.056;3.698;2022-11-04T05:27:01;22.50;;;5.42;;
70075;SDS011;63241;51.056;3.698;2022-11-04T05:29:49;22.15;;;4.90;;
70075;SDS011;63241;51.056;3.698;2022-11-04T05:32:37;17.87;;;4.87;;
70075;SDS011;63241;51.056;3.698;2022-11-04T05:35:05;20.37;;;4.95;;
70075;SDS011;63241;51.056;3.698;2022-11-04T05:37:53;23.15;;;5.40;;
70075;SDS011;63241;51.056;3.698;2022-11-04T05:40:41;22.15;;;5.53;;
70075;SDS011;63241;51.056;3.698;2022-11-04T05:43:29;16.35;;;5.33;;
70075;SDS011;63241;51.056;3.698;2022-11-04T05:46:17;19.05;;;5.67;;
70075;SDS011;63241;51.056;3.698;2022-11-04T05:49:07;14.80;;;4.47;;
70075;SDS011;63241;51.056;3.698;2022-11-04T05:51:54;27.05;;;5.45;;
70075;SDS011;63241;51.056;3.698;2022-11-04T05:54:42;21.87;;;5.33;;
70075;SDS011;63241;51.056;3.698;2022-11-04T05:57:30;17.52;;;5.92;;
70075;SDS011;63241;51.056;3.698;2022-11-04T06:00:18;20.75;;;5.05;;
70075;SDS011;63241;51.056;3.698;2022-11-04T06:03:06;18.73;;;4.83;;
70075;SDS011;63241;51.056;3.698;2022-11-04T06:05:55;18.25;;;5.08;;
70075;SDS011;63241;51.056;3.698;2022-11-04T06:08:43;24.75;;;5.42;;
70075;SDS011;63241;51.056;3.698;2022-11-04T06:11:31;27.00;;;5.95;;
70075;SDS011;63241;51.056;3.698;2022-11-04T06:14:20;20.43;;;5.22;;
70075;SDS011;63241;51.056;3.698;2022-11-04T06:17:20;23.83;;;6.10;;
70075;SDS011;63241;51.056;3.698;2022-11-04T06:20:03;21.30;;;5.75;;
70075;SDS011;63241;51.056;3.698;2022-11-04T06:22:51;20.88;;;5.42;;
70075;SDS011;63241;51.056;3.698;2022-11-04T06:25:41;18.12;;;5.55;;
70075;SDS011;63241;51.056;3.698;2022-11-04T06:28:31;23.47;;;5.72;;
70075;SDS011;63241;51.056;3.698;2022-11-04T06:35:01;19.20;;;5.87;;
70075;SDS011;63241;51.056;3.698;2022-11-04T06:37:49;23.20;;;5.65;;
70075;SDS011;63241;51.056;3.698;2022-11-04T06:40:17;16.48;;;5.00;;
70075;SDS011;63241;51.056;3.698;2022-11-04T06:43:05;17.48;;;5.70;;
70075;SDS011;63241;51.056;3.698;2022-11-04T06:45:58;22.48;;;5.80;;
70075;SDS011;63241;51.056;3.698;2022-11-04T06:48:43;29.10;;;6.42;;
70075;SDS011;63241;51.056;3.698;2022-11-04T06:51:31;20.08;;;5.95;;
70075;SDS011;63241;51.056;3.698;2022-11-04T06:54:20;27.62;;;6.30;;
70075;SDS011;63241;51.056;3.698;2022-11-04T06:57:09;27.62;;;6.60;;
70075;SDS011;63241;51.056;3.698;2022-11-04T06:59:57;24.82;;;5.67;;
70075;SDS011;63241;51.056;3.698;2022-11-04T07:02:45;16.57;;;5.55;;
70075;SDS011;63241;51.056;3.698;2022-11-04T07:05:36;17.12;;;5.65;;
70075;SDS011;63241;51.056;3.698;2022-11-04T07:08:04;23.30;;;5.42;;
70075;SDS011;63241;51.056;3.698;2022-11-04T07:10:53;21.50;;;6.00;;
70075;SDS011;63241;51.056;3.698;2022-11-04T07:13:41;21.60;;;6.05;;
70075;SDS011;63241;51.056;3.698;2022-11-04T07:16:31;24.37;;;6.03;;
70075;SDS011;63241;51.056;3.698;2022-11-04T07:19:18;20.12;;;5.67;;
70075;SDS011;63241;51.056;3.698;2022-11-04T07:22:06;25.60;;;6.20;;
70075;SDS011;63241;51.056;3.698;2022-11-04T07:24:54;27.27;;;5.90;;
70075;SDS011;63241;51.056;3.698;2022-11-04T07:27:22;15.83;;;5.53;;
70075;SDS011;63241;51.056;3.698;2022-11-04T07:30:11;23.65;;;5.90;;
70075;SDS011;63241;51.056;3.698;2022-11-04T07:32:58;22.13;;;5.78;;
70075;SDS011;63241;51.056;3.698;2022-11-04T07:35:45;16.85;;;5.42;;
70075;SDS011;63241;51.056;3.698;2022-11-04T07:38:32;24.30;;;6.40;;
70075;SDS011;63241;51.056;3.698;2022-11-04T07:41:21;24.80;;;6.15;;
70075;SDS011;63241;51.056;3.698;2022-11-04T07:44:10;29.32;;;6.30;;
70075;SDS011;63241;51.056;3.698;2022-11-04T07:46:59;21.80;;;5.50;;
70075;SDS011;63241;51.056;3.698;2022-11-04T07:49:47;28.57;;;5.85;;
70075;SDS011;63241;51.056;3.698;2022-11-04T07:52:15;27.42;;;6.20;;
70075;SDS011;63241;51.056;3.698;2022-11-04T07:55:03;24.60;;;5.33;;
70075;SDS011;63241;51.056;3.698;2022-11-04T07:57:52;30.72;;;6.40;;
70075;SDS011;63241;51.056;3.698;2022-11-04T08:00:41;19.92;;;6.17;;
70075;SDS011;63241;51.056;3.698;2022-11-04T08:03:30;28.62;;;8.08;;
70075;SDS011;63241;51.056;3.698;2022-11-04T08:06:19;31.55;;;8.50;;
70075;SDS011;63241;51.056;3.698;2022-11-04T08:09:09;34.30;;;8.05;;
70075;SDS011;63241;51.056;3.698;2022-11-04T08:11:57;30.27;;;9.08;;
70075;SDS011;63241;51.056;3.698;2022-11-04T08:14:45;26.75;;;9.40;;
70075;SDS011;63241;51.056;3.698;2022-11-04T08:17:32;23.30;;;7.97;;
70075;SDS011;63241;51.056;3.698;2022-11-04T08:20:00;29.65;;;9.25;;
70075;SDS011;63241;51.056;3.698;2022-11-04T08:22:48;25.05;;;9.10;;
70075;SDS011;63241;51.056;3.698;2022-11-04T08:25:36;29.25;;;8.48;;
70075;SDS011;63241;51.056;3.698;2022-11-04T08:28:24;21.50;;;7.47;;
70075;SDS011;63241;51.056;3.698;2022-11-04T08:31:45;24.00;;;8.33;;
70075;SDS011;63241;51.056;3.698;2022-11-04T08:34:12;26.75;;;8.63;;
70075;SDS011;63241;51.056;3.698;2022-11-04T08:37:01;29.87;;;8.83;;
70075;SDS011;63241;51.056;3.698;2022-11-04T08:39:49;21.45;;;7.53;;
70075;SDS011;63241;51.056;3.698;2022-11-04T08:42:37;24.23;;;7.80;;
70075;SDS011;63241;51.056;3.698;2022-11-04T08:45:27;21.20;;;7.33;;
70075;SDS011;63241;51.056;3.698;2022-11-04T08:48:15;16.50;;;7.15;;
70075;SDS011;63241;51.056;3.698;2022-11-04T08:51:03;15.98;;;7.10;;
70075;SDS011;63241;51.056;3.698;2022-11-04T08:53:33;18.70;;;7.25;;
70075;SDS011;63241;51.056;3.698;2022-11-04T08:56:23;18.85;;;7.85;;
70075;SDS011;63241;51.056;3.698;2022-11-04T08:59:12;20.85;;;7.70;;
70075;SDS011;63241;51.056;3.698;2022-11-04T09:02:00;20.40;;;7.20;;
70075;SDS011;63241;51.056;3.698;2022-11-04T09:04:48;21.55;;;9.53;;
70075;SDS011;63241;51.056;3.698;2022-11-04T09:07:36;17.62;;;7.42;;
70075;SDS011;63241;51.056;3.698;2022-11-04T09:10:24;21.68;;;7.45;;
70075;SDS011;63241;51.056;3.698;2022-11-04T09:13:14;15.75;;;6.55;;
70075;SDS011;63241;51.056;3.698;2022-11-04T09:15:42;15.75;;;6.30;;
70075;SDS011;63241;51.056;3.698;2022-11-04T09:18:32;18.75;;;7.22;;
70075;SDS011;63241;51.056;3.698;2022-11-04T09:21:19;14.10;;;6.50;;
70075;SDS011;63241;51.056;3.698;2022-11-04T09:24:07;16.85;;;6.80;;
70075;SDS011;63241;51.056;3.698;2022-11-04T09:26:55;14.95;;;5.95;;
70075;SDS011;63241;51.056;3.698;2022-11-04T09:29:43;14.07;;;6.75;;
70075;SDS011;63241;51.056;3.698;2022-11-04T09:32:31;15.75;;;6.30;;
70075;SDS011;63241;51.056;3.698;2022-11-04T09:35:19;13.00;;;5.65;;
70075;SDS011;63241;51.056;3.698;2022-11-04T09:37:47;13.88;;;5.80;;
70075;SDS011;63241;51.056;3.698;2022-11-04T09:40:35;13.75;;;6.10;;
70075;SDS011;63241;51.056;3.698;2022-11-04T09:43:27;16.40;;;6.00;;
70075;SDS011;63241;51.056;3.698;2022-11-04T09:46:14;15.68;;;5.58;;
70075;SDS011;63241;51.056;3.698;2022-11-04T09:49:04;17.35;;;6.70;;
70075;SDS011;63241;51.056;3.698;2022-11-04T09:51:53;17.12;;;7.45;;
70075;SDS011;63241;51.056;3.698;2022-11-04T09:57:54;13.93;;;7.10;;
70075;SDS011;63241;51.056;3.698;2022-11-04T10:00:46;13.58;;;7.00;;
70075;SDS011;63241;51.056;3.698;2022-11-04T10:03:41;16.00;;;7.47;;
70075;SDS011;63241;51.056;3.698;2022-11-04T10:09:26;17.27;;;7.50;;
70075;SDS011;63241;51.056;3.698;2022-11-04T10:18:13;12.13;;;7.42;;
70075;SDS011;63241;51.056;3.698;2022-11-04T10:21:03;14.10;;;8.60;;
70075;SDS011;63241;51.056;3.698;2022-11-04T10:27:02;13.38;;;7.80;;
70075;SDS011;63241;51.056;3.698;2022-11-04T10:29:56;11.88;;;7.83;;
70075;SDS011;63241;51.056;3.698;2022-11-04T10:32:51;12.75;;;8.35;;
70075;SDS011;63241;51.056;3.698;2022-11-04T10:35:53;18.35;;;8.70;;
70075;SDS011;63241;51.056;3.698;2022-11-04T10:38:43;13.35;;;8.33;;
70075;SDS011;63241;51.056;3.698;2022-11-04T10:41:36;15.05;;;9.20;;
70075;SDS011;63241;51.056;3.698;2022-11-04T10:47:14;17.98;;;9.90;;
70075;SDS011;63241;51.056;3.698;2022-11-04T10:50:32;12.63;;;8.10;;
70075;SDS011;63241;51.056;3.698;2022-11-04T10:53:20;15.23;;;7.85;;
70075;SDS011;63241;51.056;3.698;2022-11-04T10:59:30;11.70;;;6.75;;
70075;SDS011;63241;51.056;3.698;2022-11-04T11:05:27;11.12;;;6.12;;
70075;SDS011;63241;51.056;3.698;2022-11-04T11:08:27;12.43;;;6.05;;
70075;SDS011;63241;51.056;3.698;2022-11-04T11:11:33;11.30;;;5.92;;
70075;SDS011;63241;51.056;3.698;2022-11-04T11:20:24;10.55;;;5.55;;
70075;SDS011;63241;51.056;3.698;2022-11-04T11:26:30;7.45;;;4.10;;
70075;SDS011;63241;51.056;3.698;2022-11-04T11:29:20;7.55;;;3.35;;
70075;SDS011;63241;51.056;3.698;2022-11-04T11:32:32;8.55;;;4.10;;
70075;SDS011;63241;51.056;3.698;2022-11-04T11:35:22;7.55;;;3.47;;
70075;SDS011;63241;51.056;3.698;2022-11-04T11:37:49;8.50;;;3.75;;
70075;SDS011;63241;51.056;3.698;2022-11-04T11:40:37;10.85;;;3.65;;
70075;SDS011;63241;51.056;3.698;2022-11-04T11:43:26;6.60;;;3.58;;
70075;SDS011;63241;51.056;3.698;2022-11-04T11:46:20;9.85;;;4.15;;
70075;SDS011;63241;51.056;3.698;2022-11-04T11:49:11;7.35;;;3.80;;
70075;SDS011;63241;51.056;3.698;2022-11-04T11:58:27;8.30;;;3.87;;
70075;SDS011;63241;51.056;3.698;2022-11-04T12:04:16;8.35;;;3.85;;
70075;SDS011;63241;51.056;3.698;2022-11-04T12:07:14;9.63;;;4.85;;
70075;SDS011;63241;51.056;3.698;2022-11-04T12:10:08;9.25;;;4.42;;
70075;SDS011;63241;51.056;3.698;2022-11-04T12:25:27;9.13;;;4.65;;
70075;SDS011;63241;51.056;3.698;2022-11-04T12:41:01;6.80;;;3.35;;
70075;SDS011;63241;51.056;3.698;2022-11-04T12:47:02;8.25;;;3.10;;
70075;SDS011;63241;51.056;3.698;2022-11-04T12:49:53;7.25;;;2.72;;
70075;SDS011;63241;51.056;3.698;2022-11-04T12:56:18;5.85;;;2.12;;
70075;SDS011;63241;51.056;3.698;2022-11-04T13:02:30;3.25;;;1.42;;
70075;SDS011;63241;51.056;3.698;2022-11-04T13:08:37;4.28;;;1.55;;
70075;SDS011;63241;51.056;3.698;2022-11-04T13:11:44;2.55;;;1.15;;
70075;SDS011;63241;51.056;3.698;2022-11-04T13:14:39;5.30;;;1.50;;
70075;SDS011;63241;51.056;3.698;2022-11-04T13:17:31;9.73;;;1.70;;
70075;SDS011;63241;51.056;3.698;2022-11-04T13:23:07;4.00;;;1.17;;
70075;SDS011;63241;51.056;3.698;2022-11-04T13:25:56;5.20;;;1.87;;
70075;SDS011;63241;51.056;3.698;2022-11-04T13:28:48;3.75;;;1.37;;
70075;SDS011;63241;51.056;3.698;2022-11-04T13:37:55;3.75;;;1.30;;
70075;SDS011;63241;51.056;3.698;2022-11-04T13:40:30;1.82;;;0.75;;
70075;SDS011;63241;51.056;3.698;2022-11-04T13:43:26;2.75;;;0.90;;
70075;SDS011;63241;51.056;3.698;2022-11-04T13:46:26;3.50;;;0.82;;
70075;SDS011;63241;51.056;3.698;2022-11-04T13:49:20;4.15;;;1.35;;
70075;SDS011;63241;51.056;3.698;2022-11-04T13:52:09;6.50;;;1.47;;
70075;SDS011;63241;51.056;3.698;2022-11-04T13:55:01;4.12;;;1.10;;
70075;SDS011;63241;51.056;3.698;2022-11-04T13:57:53;4.35;;;1.10;;
70075;SDS011;63241;51.056;3.698;2022-11-04T14:01:07;10.85;;;2.60;;
70075;SDS011;63241;51.056;3.698;2022-11-04T14:03:52;7.40;;;1.20;;
70075;SDS011;63241;51.056;3.698;2022-11-04T14:09:34;6.35;;;1.40;;
70075;SDS011;63241;51.056;3.698;2022-11-04T14:12:26;6.00;;;1.13;;
70075;SDS011;63241;51.056;3.698;2022-11-04T14:15:36;6.03;;;1.30;;
70075;SDS011;63241;51.056;3.698;2022-11-04T14:18:24;8.25;;;1.37;;
70075;SDS011;63241;51.056;3.698;2022-11-04T14:21:02;7.12;;;1.50;;
70075;SDS011;63241;51.056;3.698;2022-11-04T14:23:54;5.42;;;1.52;;
70075;SDS011;63241;51.056;3.698;2022-11-04T14:26:46;6.80;;;1.65;;
70075;SDS011;63241;51.056;3.698;2022-11-04T14:29:36;7.25;;;2.00;;
70075;SDS011;63241;51.056;3.698;2022-11-04T14:32:26;12.23;;;2.33;;
70075;SDS011;63241;51.056;3.698;2022-11-04T14:35:16;13.10;;;2.62;;
70075;SDS011;63241;51.056;3.698;2022-11-04T14:47:28;8.03;;;2.35;;
70075;SDS011;63241;51.056;3.698;2022-11-04T14:50:20;12.03;;;2.20;;
70075;SDS011;63241;51.056;3.698;2022-11-04T14:53:14;8.98;;;1.85;;
70075;SDS011;63241;51.056;3.698;2022-11-04T14:56:05;9.15;;;2.30;;
70075;SDS011;63241;51.056;3.698;2022-11-04T14:58:58;9.60;;;2.27;;
70075;SDS011;63241;51.056;3.698;2022-11-04T15:04:37;8.10;;;2.08;;
70075;SDS011;63241;51.056;3.698;2022-11-04T15:07:35;10.15;;;2.30;;
70075;SDS011;63241;51.056;3.698;2022-11-04T15:10:25;7.45;;;2.10;;
70075;SDS011;63241;51.056;3.698;2022-11-04T15:12:58;9.18;;;2.37;;
70075;SDS011;63241;51.056;3.698;2022-11-04T15:15:47;11.03;;;3.00;;
70075;SDS011;63241;51.056;3.698;2022-11-04T15:18:36;8.63;;;2.30;;
70075;SDS011;63241;51.056;3.698;2022-11-04T15:21:24;10.10;;;2.55;;
70075;SDS011;63241;51.056;3.698;2022-11-04T15:24:13;9.63;;;2.75;;
70075;SDS011;63241;51.056;3.698;2022-11-04T15:27:03;11.03;;;3.58;;
70075;SDS011;63241;51.056;3.698;2022-11-04T15:30:00;13.30;;;5.05;;
70075;SDS011;63241;51.056;3.698;2022-11-04T15:32:57;14.95;;;6.17;;
70075;SDS011;63241;51.056;3.698;2022-11-04T15:35:47;15.25;;;5.20;;
70075;SDS011;63241;51.056;3.698;2022-11-04T15:38:39;10.70;;;4.85;;
70075;SDS011;63241;51.056;3.698;2022-11-04T15:41:09;14.75;;;5.80;;
70075;SDS011;63241;51.056;3.698;2022-11-04T15:44:25;11.45;;;4.80;;
70075;SDS011;63241;51.056;3.698;2022-11-04T15:50:20;13.38;;;3.72;;
70075;SDS011;63241;51.056;3.698;2022-11-04T15:53:10;12.00;;;3.40;;
70075;SDS011;63241;51.056;3.698;2022-11-04T15:56:00;7.60;;;2.58;;
70075;SDS011;63241;51.056;3.698;2022-11-04T15:58:49;11.68;;;3.92;;
70075;SDS011;63241;51.056;3.698;2022-11-04T16:01:51;13.93;;;3.75;;
70075;SDS011;63241;51.056;3.698;2022-11-04T16:04:40;14.75;;;4.20;;
70075;SDS011;63241;51.056;3.698;2022-11-04T16:07:33;16.48;;;4.95;;
70075;SDS011;63241;51.056;3.698;2022-11-04T16:13:21;16.55;;;5.20;;
70075;SDS011;63241;51.056;3.698;2022-11-04T16:19:11;17.77;;;6.58;;
70075;SDS011;63241;51.056;3.698;2022-11-04T16:21:59;15.60;;;6.62;;
70075;SDS011;63241;51.056;3.698;2022-11-04T16:24:50;15.85;;;6.62;;
70075;SDS011;63241;51.056;3.698;2022-11-04T16:27:39;14.93;;;7.45;;
70075;SDS011;63241;51.056;3.698;2022-11-04T16:33:05;22.65;;;8.23;;
70075;SDS011;63241;51.056;3.698;2022-11-04T16:35:57;18.90;;;9.00;;
70075;SDS011;63241;51.056;3.698;2022-11-04T16:38:44;23.20;;;8.33;;
70075;SDS011;63241;51.056;3.698;2022-11-04T16:41:35;24.72;;;10.40;;
70075;SDS011;63241;51.056;3.698;2022-11-04T16:44:05;27.02;;;12.82;;
70075;SDS011;63241;51.056;3.698;2022-11-04T16:46:55;26.42;;;13.90;;
70075;SDS011;63241;51.056;3.698;2022-11-04T16:49:44;26.30;;;13.38;;
70075;SDS011;63241;51.056;3.698;2022-11-04T16:52:32;30.77;;;12.90;;
70075;SDS011;63241;51.056;3.698;2022-11-04T16:55:19;25.70;;;14.38;;
70075;SDS011;63241;51.056;3.698;2022-11-04T16:58:10;35.55;;;14.30;;
70075;SDS011;63241;51.056;3.698;2022-11-04T17:01:04;35.15;;;16.15;;
70075;SDS011;63241;51.056;3.698;2022-11-04T17:03:30;30.52;;;16.70;;
70075;SDS011;63241;51.056;3.698;2022-11-04T17:06:18;30.37;;;15.00;;
70075;SDS011;63241;51.056;3.698;2022-11-04T17:09:16;27.40;;;14.87;;
70075;SDS011;63241;51.056;3.698;2022-11-04T17:12:01;33.65;;;16.87;;
70075;SDS011;63241;51.056;3.698;2022-11-04T17:14:50;42.53;;;17.55;;
70075;SDS011;63241;51.056;3.698;2022-11-04T17:17:37;39.60;;;17.40;;
70075;SDS011;63241;51.056;3.698;2022-11-04T17:20:27;31.52;;;16.52;;
70075;SDS011;63241;51.056;3.698;2022-11-04T17:22:53;36.55;;;18.30;;
70075;SDS011;63241;51.056;3.698;2022-11-04T17:25:42;33.28;;;18.60;;
70075;SDS011;63241;51.056;3.698;2022-11-04T17:28:31;32.50;;;18.02;;
70075;SDS011;63241;51.056;3.698;2022-11-04T17:31:20;38.02;;;17.40;;
70075;SDS011;63241;51.056;3.698;2022-11-04T17:34:29;41.75;;;18.35;;
70075;SDS011;63241;51.056;3.698;2022-11-04T17:37:19;32.10;;;19.40;;
70075;SDS011;63241;51.056;3.698;2022-11-04T17:40:07;39.20;;;20.37;;
70075;SDS011;63241;51.056;3.698;2022-11-04T17:42:58;41.75;;;19.82;;
70075;SDS011;63241;51.056;3.698;2022-11-04T17:45:46;35.98;;;20.80;;
70075;SDS011;63241;51.056;3.698;2022-11-04T17:48:35;40.33;;;22.13;;
70075;SDS011;63241;51.056;3.698;2022-11-04T17:51:22;42.05;;;19.48;;
70075;SDS011;63241;51.056;3.698;2022-11-04T17:54:11;40.95;;;20.82;;
70075;SDS011;63241;51.056;3.698;2022-11-04T17:56:37;36.35;;;20.72;;
70075;SDS011;63241;51.056;3.698;2022-11-04T17:59:26;37.53;;;20.43;;
70075;SDS011;63241;51.056;3.698;2022-11-04T18:02:13;43.20;;;22.00;;
70075;SDS011;63241;51.056;3.698;2022-11-04T18:04:59;42.53;;;21.40;;
70075;SDS011;63241;51.056;3.698;2022-11-04T18:07:47;40.23;;;21.30;;
70075;SDS011;63241;51.056;3.698;2022-11-04T18:10:37;45.98;;;20.75;;
70075;SDS011;63241;51.056;3.698;2022-11-04T18:13:24;43.87;;;21.75;;
70075;SDS011;63241;51.056;3.698;2022-11-04T18:16:13;39.73;;;20.68;;
70075;SDS011;63241;51.056;3.698;2022-11-04T18:19:21;44.63;;;21.55;;
70075;SDS011;63241;51.056;3.698;2022-11-04T18:22:11;50.98;;;22.58;;
70075;SDS011;63241;51.056;3.698;2022-11-04T18:29:01;37.15;;;20.92;;
70075;SDS011;63241;51.056;3.698;2022-11-04T18:32:01;41.42;;;19.20;;
70075;SDS011;63241;51.056;3.698;2022-11-04T18:34:48;40.10;;;19.02;;
70075;SDS011;63241;51.056;3.698;2022-11-04T18:37:41;37.55;;;18.85;;
70075;SDS011;63241;51.056;3.698;2022-11-04T18:40:29;35.80;;;19.15;;
70075;SDS011;63241;51.056;3.698;2022-11-04T18:43:17;41.00;;;18.45;;
70075;SDS011;63241;51.056;3.698;2022-11-04T18:46:06;39.03;;;17.77;;
70075;SDS011;63241;51.056;3.698;2022-11-04T18:48:56;37.00;;;19.17;;
70075;SDS011;63241;51.056;3.698;2022-11-04T18:51:45;37.20;;;19.15;;
70075;SDS011;63241;51.056;3.698;2022-11-04T18:54:33;45.52;;;20.27;;
70075;SDS011;63241;51.056;3.698;2022-11-04T18:57:20;44.83;;;20.43;;
70075;SDS011;63241;51.056;3.698;2022-11-04T18:59:47;40.05;;;21.48;;
70075;SDS011;63241;51.056;3.698;2022-11-04T19:02:34;44.93;;;21.35;;
70075;SDS011;63241;51.056;3.698;2022-11-04T19:05:23;40.67;;;21.30;;
70075;SDS011;63241;51.056;3.698;2022-11-04T19:08:11;46.98;;;22.25;;
70075;SDS011;63241;51.056;3.698;2022-11-04T19:11:00;41.37;;;21.75;;
70075;SDS011;63241;51.056;3.698;2022-11-04T19:13:54;43.58;;;20.15;;
70075;SDS011;63241;51.056;3.698;2022-11-04T19:16:43;129.05;;;45.88;;
70075;SDS011;63241;51.056;3.698;2022-11-04T19:19:31;91.37;;;35.15;;